Time;durP1;ratioP1;P1;durP2;ratioP2;P2;SDS_P1;SDS_P2;PMS_P1;PMS_P2;Temp;Humidity;BMP_temperature;BMP_pressure;BME280_temperature;BME280_humidity;BME280_pressure;Samples;Min_cycle;Max_cycle;Signal;HPM_P1;HPM_P2
2022/06/30 00:01:15;;;;;;;14.93;13.50;;;17.20;99.90;;;;;;5055189;28;20566;-67
2022/06/30 00:03:41;;;;;;;13.47;12.30;;;17.20;99.90;;;;;;5053498;28;20472;-67
2022/06/30 00:06:09;;;;;;;15.63;12.30;;;17.10;99.90;;;;;;5055689;28;20476;-67
2022/06/30 00:08:36;;;;;;;14.50;13.40;;;17.10;99.90;;;;;;5055499;28;21109;-67
2022/06/30 00:11:06;;;;;;;12.93;11.93;;;17.10;99.90;;;;;;5058462;28;20459;-67
2022/06/30 00:13:36;;;;;;;13.00;12.00;;;17.10;99.90;;;;;;5058511;28;20463;-66
2022/06/30 00:16:03;;;;;;;14.27;12.30;;;17.10;99.90;;;;;;5052203;28;20468;-67
2022/06/30 00:18:31;;;;;;;13.40;12.40;;;17.10;99.90;;;;;;5059701;28;20454;-67
2022/06/30 00:20:59;;;;;;;13.23;12.23;;;17.10;99.90;;;;;;5054473;28;20501;-67
2022/06/30 00:23:26;;;;;;;14.40;12.97;;;17.20;99.90;;;;;;5049331;28;20475;-66
2022/06/30 00:25:53;;;;;;;14.70;13.40;;;17.10;99.90;;;;;;5049110;28;20836;-66
2022/06/30 00:28:20;;;;;;;16.03;13.90;;;17.10;99.90;;;;;;5056726;28;20463;-67
2022/06/30 00:30:48;;;;;;;15.13;13.53;;;17.10;99.90;;;;;;5057232;28;20983;-66
2022/06/30 00:33:15;;;;;;;14.10;13.17;;;17.10;99.90;;;;;;5059490;28;20490;-66
2022/06/30 00:35:46;;;;;;;14.50;13.30;;;17.00;99.90;;;;;;5047834;28;20471;-67
2022/06/30 00:38:14;;;;;;;13.83;12.70;;;16.90;99.90;;;;;;5054501;28;20470;-67
2022/06/30 00:40:43;;;;;;;13.50;12.40;;;16.90;99.90;;;;;;5052352;28;20530;-66
2022/06/30 00:43:10;;;;;;;13.90;12.73;;;16.80;99.90;;;;;;5053709;28;20467;-67
2022/06/30 00:45:41;;;;;;;13.50;12.40;;;16.70;99.90;;;;;;5059867;28;20455;-67
2022/06/30 00:48:09;;;;;;;15.97;13.33;;;16.70;99.90;;;;;;5052117;28;20531;-67
2022/06/30 00:50:36;;;;;;;14.33;13.23;;;16.60;99.90;;;;;;5052728;28;20875;-66
2022/06/30 00:53:06;;;;;;;13.80;12.70;;;16.60;99.90;;;;;;5052892;28;20511;-66
2022/06/30 00:55:33;;;;;;;14.43;13.13;;;16.60;99.90;;;;;;5054603;28;20460;-67
2022/06/30 00:58:01;;;;;;;13.53;12.20;;;16.60;99.90;;;;;;5055102;28;20817;-67
2022/06/30 01:00:30;;;;;;;16.87;13.47;;;16.40;99.90;;;;;;5054096;28;20503;-66
2022/06/30 01:02:58;;;;;;;14.57;13.37;;;16.20;99.90;;;;;;5047300;28;21005;-67
2022/06/30 01:05:26;;;;;;;15.13;13.57;;;16.20;99.90;;;;;;5052341;28;20464;-66
2022/06/30 01:07:54;;;;;;;15.60;14.10;;;16.20;99.90;;;;;;5053667;28;20987;-67
2022/06/30 01:13:08;;;;;;;20.63;14.60;;;16.00;99.90;;;;;;5049173;28;20536;-66
2022/06/30 01:15:35;;;;;;;15.93;14.33;;;16.00;99.90;;;;;;5055833;28;20464;-66
2022/06/30 01:18:02;;;;;;;17.40;13.87;;;16.00;99.90;;;;;;5057366;28;20466;-67
2022/06/30 01:20:30;;;;;;;16.83;14.40;;;16.00;99.90;;;;;;5053563;28;20553;-67
2022/06/30 01:23:00;;;;;;;20.10;15.33;;;16.00;99.90;;;;;;5053834;28;20458;-66
2022/06/30 01:25:28;;;;;;;17.00;15.47;;;16.00;99.90;;;;;;5053428;28;20835;-66
2022/06/30 01:27:56;;;;;;;17.63;15.30;;;16.10;99.90;;;;;;5050897;28;20474;-66
2022/06/30 01:30:25;;;;;;;15.07;13.60;;;16.20;99.90;;;;;;5051907;28;20846;-67
2022/06/30 01:32:53;;;;;;;17.77;15.87;;;16.20;99.90;;;;;;5056704;28;20474;-66
2022/06/30 01:35:20;;;;;;;23.60;15.47;;;16.10;99.90;;;;;;5054283;28;21111;-66
2022/06/30 01:37:50;;;;;;;18.60;14.87;;;16.10;99.90;;;;;;5051843;28;20447;-67
2022/06/30 01:40:19;;;;;;;16.30;15.00;;;16.10;99.90;;;;;;5050906;28;20451;-66
2022/06/30 01:42:47;;;;;;;25.43;14.93;;;16.20;99.90;;;;;;5050529;28;20464;-66
2022/06/30 01:45:15;;;;;;;15.40;14.00;;;16.10;99.90;;;;;;5050461;28;20455;-66
2022/06/30 01:47:43;;;;;;;20.53;14.03;;;15.90;99.90;;;;;;5052914;28;20460;-67
2022/06/30 01:50:12;;;;;;;20.87;15.27;;;15.90;99.90;;;;;;5058150;28;20465;-66
2022/06/30 01:52:40;;;;;;;17.93;14.20;;;15.90;99.90;;;;;;5052671;28;20791;-66
2022/06/30 01:55:08;;;;;;;24.97;15.47;;;15.90;99.90;;;;;;5051745;28;20989;-66
2022/06/30 01:57:37;;;;;;;15.70;13.53;;;16.00;99.90;;;;;;5059085;28;20474;-66
2022/06/30 02:00:06;;;;;;;19.90;13.23;;;16.10;99.90;;;;;;5059199;28;20459;-66
2022/06/30 02:02:33;;;;;;;14.57;13.00;;;15.90;99.90;;;;;;5061587;28;20503;-69
2022/06/30 02:05:01;;;;;;;16.00;13.13;;;15.70;99.90;;;;;;5055364;28;20459;-66
2022/06/30 02:07:29;;;;;;;16.20;14.43;;;15.60;99.90;;;;;;5057216;28;20831;-67
2022/06/30 02:09:57;;;;;;;15.10;13.60;;;15.50;99.90;;;;;;5058023;28;20485;-66
2022/06/30 02:15:11;;;;;;;19.13;13.40;;;15.50;99.90;;;;;;5059397;28;20455;-66
2022/06/30 02:17:39;;;;;;;17.83;13.63;;;15.30;99.90;;;;;;5058650;28;20462;-66
2022/06/30 02:20:08;;;;;;;16.33;14.20;;;15.20;99.90;;;;;;5055674;28;20471;-67
2022/06/30 02:22:36;;;;;;;21.93;14.13;;;15.10;99.90;;;;;;5054800;28;20494;-66
2022/06/30 02:25:04;;;;;;;16.13;14.53;;;15.00;99.90;;;;;;5055585;28;20992;-67
2022/06/30 02:27:31;;;;;;;16.97;15.27;;;15.00;99.90;;;;;;5051398;28;20875;-66
2022/06/30 02:29:57;;;;;;;28.83;14.70;;;15.10;99.90;;;;;;5058125;28;20461;-66
2022/06/30 02:32:27;;;;;;;16.30;14.70;;;15.20;99.90;;;;;;5058443;28;20466;-66
2022/06/30 02:34:55;;;;;;;17.93;15.80;;;15.30;99.90;;;;;;5053966;28;20980;-67
2022/06/30 02:37:22;;;;;;;24.50;15.37;;;15.40;99.90;;;;;;5059354;28;20462;-66
2022/06/30 02:39:49;;;;;;;22.50;14.13;;;15.40;99.90;;;;;;5062908;28;20469;-66
2022/06/30 02:42:16;;;;;;;16.90;14.77;;;15.40;99.90;;;;;;5056061;28;20495;-67
2022/06/30 02:44:43;;;;;;;17.87;15.20;;;15.30;99.90;;;;;;5059088;28;20467;-67
2022/06/30 02:47:10;;;;;;;21.80;17.00;;;15.30;99.90;;;;;;5059018;28;20845;-66
2022/06/30 02:49:39;;;;;;;29.93;16.40;;;15.20;99.90;;;;;;5057170;28;20546;-67
2022/06/30 02:52:07;;;;;;;27.40;16.80;;;15.20;99.90;;;;;;5060153;28;20467;-67
2022/06/30 02:54:34;;;;;;;17.60;15.97;;;15.10;99.90;;;;;;5058490;28;20462;-66
2022/06/30 02:57:02;;;;;;;30.63;16.93;;;15.00;99.90;;;;;;5055849;28;20464;-67
2022/06/30 02:59:28;;;;;;;17.33;15.40;;;15.00;99.90;;;;;;5052441;28;20462;-66
2022/06/30 03:01:56;;;;;;;17.33;15.60;;;15.10;99.90;;;;;;5059448;28;20498;-66
2022/06/30 03:04:25;;;;;;;20.53;15.73;;;15.10;99.90;;;;;;5055674;28;20882;-66
2022/06/30 03:06:55;;;;;;;28.03;15.40;;;15.20;99.90;;;;;;5058579;28;20492;-66
2022/06/30 03:09:22;;;;;;;17.43;15.20;;;15.10;99.90;;;;;;5061029;28;20517;-67
2022/06/30 03:11:51;;;;;;;21.10;15.63;;;15.00;99.90;;;;;;5056970;28;20491;-66
2022/06/30 03:14:19;;;;;;;23.43;16.67;;;15.00;99.90;;;;;;5055400;28;20521;-66
2022/06/30 03:16:45;;;;;;;17.73;16.10;;;14.90;99.90;;;;;;5057459;28;20459;-66
2022/06/30 03:19:12;;;;;;;18.57;16.70;;;14.90;99.90;;;;;;5049906;28;20970;-66
2022/06/30 03:21:39;;;;;;;22.13;16.80;;;14.90;99.90;;;;;;5057018;28;20474;-67
2022/06/30 03:24:09;;;;;;;25.00;16.20;;;14.90;99.90;;;;;;5057255;28;21035;-66
2022/06/30 03:26:36;;;;;;;18.27;16.17;;;15.00;99.90;;;;;;5057440;28;21356;-67
2022/06/30 03:29:04;;;;;;;17.50;15.70;;;14.90;99.90;;;;;;5057632;28;20521;-66
2022/06/30 03:31:31;;;;;;;21.03;16.70;;;14.90;99.90;;;;;;5056876;28;21014;-66
2022/06/30 03:33:58;;;;;;;24.57;16.93;;;15.00;99.90;;;;;;5056424;28;20468;-66
2022/06/30 03:36:26;;;;;;;16.70;15.13;;;15.00;99.90;;;;;;5056184;28;20456;-67
2022/06/30 03:38:53;;;;;;;17.30;16.10;;;14.90;99.90;;;;;;5056354;28;20456;-66
2022/06/30 03:41:22;;;;;;;19.60;16.00;;;14.90;99.90;;;;;;5057729;28;20467;-66
2022/06/30 03:43:50;;;;;;;19.70;17.63;;;14.90;99.90;;;;;;5057212;28;20514;-66
2022/06/30 03:46:16;;;;;;;19.10;17.20;;;14.90;99.90;;;;;;5056779;28;20474;-67
2022/06/30 03:48:43;;;;;;;18.70;16.80;;;14.80;99.90;;;;;;5055142;28;20513;-65
2022/06/30 03:51:11;;;;;;;21.83;17.63;;;14.80;99.90;;;;;;5055582;28;20466;-66
2022/06/30 03:53:39;;;;;;;21.10;17.47;;;14.80;99.90;;;;;;5059034;28;20546;-66
2022/06/30 03:56:06;;;;;;;21.93;18.00;;;14.80;99.90;;;;;;5054742;28;20533;-66
2022/06/30 03:58:35;;;;;;;21.30;17.53;;;14.90;99.90;;;;;;5048821;28;20460;-66
2022/06/30 04:01:02;;;;;;;23.03;17.60;;;14.90;99.90;;;;;;5058082;28;20455;-66
2022/06/30 04:03:29;;;;;;;30.63;18.30;;;14.90;99.90;;;;;;5035281;28;20510;-66
2022/06/30 04:05:56;;;;;;;20.00;18.00;;;14.80;99.90;;;;;;5047377;28;20489;-66
2022/06/30 04:08:23;;;;;;;22.20;18.13;;;14.80;99.90;;;;;;5038924;28;20464;-66
2022/06/30 04:10:51;;;;;;;20.00;17.33;;;14.80;99.90;;;;;;5027933;28;20470;-66
2022/06/30 04:13:18;;;;;;;19.30;17.67;;;14.80;99.90;;;;;;5030221;28;20492;-66
2022/06/30 04:15:46;;;;;;;20.90;18.43;;;14.80;99.90;;;;;;5028469;28;20470;-66
2022/06/30 04:18:13;;;;;;;19.63;17.67;;;14.90;99.90;;;;;;5028139;28;21130;-67
2022/06/30 04:20:40;;;;;;;25.83;18.30;;;15.00;99.90;;;;;;5027057;28;20464;-66
2022/06/30 04:23:07;;;;;;;19.90;17.87;;;15.00;99.90;;;;;;5028382;28;20479;-67
2022/06/30 04:25:33;;;;;;;19.40;17.50;;;15.10;99.90;;;;;;5027004;28;20472;-66
2022/06/30 04:28:00;;;;;;;21.10;18.63;;;15.10;99.90;;;;;;5027651;28;20485;-66
2022/06/30 04:33:13;;;;;;;19.73;17.63;;;15.10;99.90;;;;;;5029246;28;20909;-66
2022/06/30 04:35:40;;;;;;;18.67;17.07;;;15.20;99.90;;;;;;5029970;28;20729;-66
2022/06/30 04:38:06;;;;;;;18.80;16.87;;;15.30;99.90;;;;;;5028346;28;21052;-68
2022/06/30 04:43:32;;;;;;;19.20;16.90;;;15.40;99.90;;;;;;4987334;28;20527;-65
2022/06/30 04:45:59;;;;;;;29.50;18.30;;;15.50;99.90;;;;;;4986787;28;21027;-66
2022/06/30 04:48:28;;;;;;;17.80;16.10;;;15.60;99.90;;;;;;5004038;28;20479;-67
2022/06/30 04:50:55;;;;;;;19.90;17.00;;;15.70;99.90;;;;;;5028571;28;20467;-67
2022/06/30 04:53:21;;;;;;;17.90;16.10;;;15.80;99.90;;;;;;5029816;28;21140;-67
2022/06/30 04:55:49;;;;;;;18.63;15.70;;;16.00;99.90;;;;;;5029542;28;20671;-67
2022/06/30 04:58:15;;;;;;;17.73;16.13;;;16.10;99.90;;;;;;5028206;28;20864;-66
2022/06/30 05:00:42;;;;;;;40.70;16.77;;;16.20;99.90;;;;;;5029467;28;20470;-66
2022/06/30 05:03:09;;;;;;;26.40;18.97;;;16.30;99.90;;;;;;5028250;28;20494;-66
2022/06/30 05:05:37;;;;;;;26.33;17.27;;;16.40;99.90;;;;;;5028215;28;20525;-67
2022/06/30 05:08:04;;;;;;;19.57;17.50;;;16.50;99.90;;;;;;5028556;28;20464;-66
2022/06/30 05:10:31;;;;;;;20.90;18.20;;;16.60;99.90;;;;;;5028612;28;20924;-67
2022/06/30 05:12:58;;;;;;;17.20;15.37;;;16.80;99.90;;;;;;5028866;28;20496;-66
2022/06/30 05:15:25;;;;;;;20.83;16.00;;;16.80;99.90;;;;;;5028636;28;20979;-67
2022/06/30 05:17:52;;;;;;;16.40;14.70;;;17.00;99.90;;;;;;5026846;28;20465;-66
2022/06/30 05:20:19;;;;;;;20.57;15.30;;;17.20;99.90;;;;;;5027406;28;20834;-66
2022/06/30 05:22:47;;;;;;;17.13;15.00;;;17.40;99.90;;;;;;5027616;28;20471;-66
2022/06/30 05:27:58;;;;;;;25.17;14.80;;;17.80;99.90;;;;;;5027881;28;20525;-67
2022/06/30 05:30:25;;;;;;;20.33;13.77;;;17.90;99.90;;;;;;5026954;28;20468;-67
2022/06/30 05:32:52;;;;;;;27.80;15.03;;;18.10;99.90;;;;;;5025639;28;20492;-66
2022/06/30 05:35:19;;;;;;;18.30;13.57;;;18.30;99.90;;;;;;5028606;28;20462;-66
2022/06/30 05:37:48;;;;;;;33.27;13.87;;;18.50;99.90;;;;;;5028530;28;20475;-67
2022/06/30 05:40:15;;;;;;;24.10;13.93;;;18.60;99.90;;;;;;5028601;28;20490;-68
2022/06/30 05:42:42;;;;;;;30.80;15.73;;;18.70;99.90;;;;;;5028288;28;20740;-67
2022/06/30 05:45:10;;;;;;;24.47;14.20;;;18.80;99.90;;;;;;5027488;28;20469;-67
2022/06/30 05:47:45;;;;;;;41.73;15.10;;;18.90;99.90;;;;;;5028119;28;20578;-67
2022/06/30 05:50:13;;;;;;;23.63;14.57;;;19.00;99.90;;;;;;5026484;28;20491;-66
2022/06/30 05:52:40;;;;;;;18.90;14.20;;;19.10;99.90;;;;;;5026928;28;20864;-66
2022/06/30 05:55:09;;;;;;;26.90;13.50;;;19.30;99.90;;;;;;5028951;28;20472;-67
2022/06/30 05:57:47;;;;;;;16.60;14.60;;;19.40;99.90;;;;;;5027941;28;20474;-67
2022/06/30 06:00:15;;;;;;;15.57;14.13;;;19.60;99.90;;;;;;5028587;28;21280;-67
2022/06/30 06:02:42;;;;;;;15.20;13.67;;;19.80;99.90;;;;;;5023654;28;20467;-66
2022/06/30 06:05:09;;;;;;;15.90;14.10;;;20.00;99.90;;;;;;5016918;28;20869;-67
2022/06/30 06:07:36;;;;;;;18.93;15.47;;;19.90;99.90;;;;;;5019535;28;21036;-68
2022/06/30 06:10:03;;;;;;;21.13;15.37;;;20.00;99.90;;;;;;5021599;28;20483;-67
2022/06/30 06:12:31;;;;;;;18.47;16.70;;;20.00;99.90;;;;;;5021255;28;20488;-67
2022/06/30 06:14:58;;;;;;;17.47;15.97;;;20.10;99.90;;;;;;5021618;28;20957;-68
2022/06/30 06:17:26;;;;;;;19.40;16.63;;;20.20;99.90;;;;;;5021925;28;20788;-67
2022/06/30 06:19:52;;;;;;;18.23;16.40;;;20.30;99.90;;;;;;5021499;28;20462;-67
2022/06/30 06:22:19;;;;;;;17.67;15.73;;;20.40;99.90;;;;;;5045442;28;20475;-66
2022/06/30 06:24:46;;;;;;;18.67;16.97;;;20.50;99.90;;;;;;5044572;28;20467;-65
2022/06/30 06:27:13;;;;;;;16.13;14.80;;;20.60;99.90;;;;;;5020162;28;20489;-67
2022/06/30 06:29:41;;;;;;;25.33;17.30;;;20.70;99.90;;;;;;5022004;28;20468;-67
2022/06/30 06:32:09;;;;;;;16.67;15.53;;;20.80;99.90;;;;;;5017535;28;20467;-68
2022/06/30 06:34:36;;;;;;;17.03;15.83;;;21.00;99.90;;;;;;5022177;28;20459;-67
2022/06/30 06:37:03;;;;;;;17.50;15.67;;;21.20;99.90;;;;;;5019124;28;20781;-66
2022/06/30 06:39:30;;;;;;;16.37;15.23;;;21.40;99.90;;;;;;5026468;28;20514;-67
2022/06/30 06:41:57;;;;;;;22.30;16.00;;;21.50;99.90;;;;;;5029981;28;20455;-67
2022/06/30 06:44:25;;;;;;;17.33;16.00;;;21.60;99.90;;;;;;5029808;28;20495;-67
2022/06/30 06:46:53;;;;;;;17.83;16.27;;;21.70;99.90;;;;;;5029548;28;20961;-68
2022/06/30 06:49:20;;;;;;;17.20;15.00;;;21.70;99.90;;;;;;5030508;28;20476;-67
2022/06/30 06:51:47;;;;;;;16.93;15.50;;;21.70;99.90;;;;;;5028101;28;20510;-67
2022/06/30 06:54:13;;;;;;;19.07;16.13;;;21.80;99.90;;;;;;5028910;28;21086;-67
2022/06/30 06:56:40;;;;;;;18.57;16.57;;;21.80;99.90;;;;;;5030054;28;20467;-66
2022/06/30 06:59:07;;;;;;;18.03;16.10;;;21.80;99.90;;;;;;5029651;28;20459;-66
2022/06/30 07:01:34;;;;;;;17.47;16.17;;;21.80;99.90;;;;;;5029616;28;21161;-67
2022/06/30 07:04:02;;;;;;;17.40;15.90;;;21.90;99.90;;;;;;5028935;28;20835;-67
2022/06/30 07:06:29;;;;;;;17.57;16.13;;;21.90;99.90;;;;;;5029994;28;20546;-67
2022/06/30 07:08:56;;;;;;;18.27;16.70;;;22.10;99.90;;;;;;5029766;28;20487;-67
2022/06/30 07:11:22;;;;;;;17.17;15.87;;;22.10;99.90;;;;;;5029120;28;20777;-69
2022/06/30 07:13:49;;;;;;;18.00;16.70;;;22.20;99.90;;;;;;5029454;28;20681;-67
2022/06/30 07:16:17;;;;;;;17.50;16.10;;;22.30;99.90;;;;;;5029233;28;20455;-67
2022/06/30 07:18:44;;;;;;;18.27;16.83;;;22.40;99.90;;;;;;5029724;28;20566;-67
2022/06/30 07:21:12;;;;;;;20.00;16.13;;;22.50;99.90;;;;;;5028607;28;20482;-67
2022/06/30 07:23:39;;;;;;;17.50;16.40;;;22.50;99.90;;;;;;5029880;28;20467;-67
2022/06/30 07:26:06;;;;;;;20.23;17.67;;;22.50;99.90;;;;;;5029230;28;20487;-67
2022/06/30 07:28:34;;;;;;;23.83;16.37;;;22.70;99.90;;;;;;5029526;28;20561;-67
2022/06/30 07:31:01;;;;;;;16.80;15.70;;;22.70;99.90;;;;;;5028486;28;20979;-67
2022/06/30 07:33:28;;;;;;;18.20;16.53;;;22.60;99.90;;;;;;5029746;28;20486;-68
2022/06/30 07:35:55;;;;;;;17.30;16.10;;;22.70;99.90;;;;;;5028548;28;20888;-68
2022/06/30 07:38:23;;;;;;;17.40;16.10;;;22.80;99.90;;;;;;5038613;28;20471;-67
2022/06/30 07:40:50;;;;;;;17.40;16.20;;;22.70;99.90;;;;;;5049830;28;20455;-67
2022/06/30 07:43:17;;;;;;;18.63;17.10;;;22.90;99.90;;;;;;5059597;28;20490;-67
2022/06/30 07:45:44;;;;;;;17.93;16.53;;;22.90;99.90;;;;;;5030570;28;20474;-67
2022/06/30 07:48:11;;;;;;;18.10;16.80;;;23.10;99.90;;;;;;5028397;28;20459;-67
2022/06/30 07:50:38;;;;;;;17.57;15.97;;;23.10;99.90;;;;;;5049155;28;20456;-67
2022/06/30 07:53:05;;;;;;;17.53;16.10;;;23.30;99.90;;;;;;5043715;28;20496;-67
2022/06/30 07:55:33;;;;;;;17.37;16.03;;;23.40;99.90;;;;;;5028615;28;20945;-68
2022/06/30 07:58:01;;;;;;;17.60;16.40;;;23.50;99.90;;;;;;5034284;28;20452;-67
2022/06/30 08:00:28;;;;;;;18.63;16.80;;;23.70;99.90;;;;;;5057765;28;20459;-67
2022/06/30 08:02:55;;;;;;;18.40;17.10;;;23.80;99.90;;;;;;5028798;28;20818;-67
2022/06/30 08:05:22;;;;;;;18.30;17.10;;;24.00;99.90;;;;;;5023001;28;20482;-67
2022/06/30 08:07:49;;;;;;;19.00;17.27;;;24.30;99.90;;;;;;5021777;28;20468;-70
2022/06/30 08:10:16;;;;;;;18.97;17.50;;;24.70;99.90;;;;;;5021621;28;20490;-68
2022/06/30 08:12:44;;;;;;;18.70;17.30;;;25.20;99.90;;;;;;5020063;28;20580;-68
2022/06/30 08:15:13;;;;;;;19.60;18.30;;;25.60;99.90;;;;;;5029203;28;20476;-68
2022/06/30 08:17:40;;;;;;;20.53;18.70;;;26.00;99.90;;;;;;5038181;28;21322;-67
2022/06/30 08:20:07;;;;;;;37.70;19.93;;;26.20;99.90;;;;;;5025633;28;20463;-67
2022/06/30 08:22:34;;;;;;;21.33;19.10;;;26.40;99.90;;;;;;5023430;28;20806;-67
2022/06/30 08:25:02;;;;;;;19.43;17.97;;;26.50;99.90;;;;;;5028064;28;20465;-67
2022/06/30 08:27:29;;;;;;;20.27;18.40;;;26.80;99.90;;;;;;5026938;28;21091;-67
2022/06/30 08:29:57;;;;;;;19.67;18.47;;;27.10;99.90;;;;;;5026699;28;20546;-68
2022/06/30 08:32:24;;;;;;;20.30;18.73;;;26.90;99.90;;;;;;5027321;28;20864;-67
2022/06/30 08:34:51;;;;;;;18.47;17.43;;;26.60;99.90;;;;;;5027572;28;20494;-68
2022/06/30 08:37:17;;;;;;;18.50;17.23;;;26.70;99.90;;;;;;5025415;28;20530;-68
2022/06/30 08:42:31;;;;;;;18.73;17.30;;;27.50;99.90;;;;;;5021990;28;20555;-68
2022/06/30 08:45:17;;;;;;;18.80;17.33;;;27.60;99.90;;;;;;5016607;28;20848;-67
2022/06/30 08:47:45;;;;;;;21.03;17.97;;;27.70;99.90;;;;;;5017085;28;20891;-68
2022/06/30 08:50:13;;;;;;;18.80;17.60;;;28.20;99.90;;;;;;5016656;28;20505;-68
2022/06/30 08:52:46;;;;;;;18.47;17.37;;;27.90;99.90;;;;;;5017861;28;20459;-68
2022/06/30 08:55:14;;;;;;;18.37;17.17;;;28.50;99.90;;;;;;5020259;28;20456;-67
2022/06/30 08:57:42;;;;;;;19.37;17.70;;;29.00;99.90;;;;;;5014122;28;20474;-68
2022/06/30 09:00:13;;;;;;;19.63;18.13;;;29.00;99.90;;;;;;5016582;28;20974;-67
2022/06/30 09:02:41;;;;;;;43.50;20.10;;;28.90;99.90;;;;;;5016923;28;20581;-68
2022/06/30 09:05:08;;;;;;;20.53;18.80;;;28.30;99.90;;;;;;5017027;28;21060;-68
2022/06/30 09:07:35;;;;;;;20.23;18.57;;;28.80;99.90;;;;;;5018656;28;20455;-67
2022/06/30 09:10:03;;;;;;;19.23;17.90;;;28.90;99.90;;;;;;5033356;28;20479;-67
2022/06/30 09:12:30;;;;;;;20.53;18.87;;;28.20;99.90;;;;;;5050879;28;20524;-67
2022/06/30 09:14:57;;;;;;;27.47;19.60;;;27.80;99.90;;;;;;5034530;28;20491;-68
2022/06/30 09:17:27;;;;;;;22.30;17.83;;;27.80;99.90;;;;;;5027142;28;20517;-68
2022/06/30 09:19:57;;;;;;;18.20;17.10;;;28.10;99.90;;;;;;5023318;28;20463;-67
2022/06/30 09:22:26;;;;;;;19.13;17.73;;;28.20;99.90;;;;;;5027119;28;21316;-68
2022/06/30 09:24:59;;;;;;;19.83;18.00;;;28.70;99.90;;;;;;5049596;28;20464;-68
2022/06/30 09:27:29;;;;;;;18.63;17.13;;;28.40;99.90;;;;;;5053311;28;20483;-68
2022/06/30 09:29:58;;;;;;;19.00;17.67;;;28.70;99.90;;;;;;5031663;28;20468;-68
2022/06/30 09:32:27;;;;;;;19.97;18.57;;;28.90;99.90;;;;;;5027363;28;20470;-67
2022/06/30 09:35:06;;;;;;;19.07;17.53;;;29.20;99.90;;;;;;5027380;28;20525;-68
2022/06/30 09:37:34;;;;;;;24.23;17.70;;;29.20;99.50;;;;;;5028131;28;20464;-69
2022/06/30 09:40:00;;;;;;;18.53;17.13;;;29.40;99.80;;;;;;5026880;28;20507;-68
2022/06/30 09:42:39;;;;;;;56.30;22.23;;;29.70;99.80;;;;;;5027521;28;20464;-68
2022/06/30 09:45:08;;;;;;;19.70;18.00;;;29.80;98.20;;;;;;5026399;28;20470;-68
2022/06/30 09:47:37;;;;;;;19.30;17.90;;;29.40;97.70;;;;;;5027176;28;20460;-69
2022/06/30 09:50:07;;;;;;;18.93;17.40;;;29.30;98.60;;;;;;5026505;28;20468;-69
2022/06/30 09:52:34;;;;;;;18.57;17.20;;;29.60;98.80;;;;;;5027496;28;22758;-69
2022/06/30 09:55:03;;;;;;;19.27;17.97;;;29.80;99.00;;;;;;5027026;28;20499;-69
2022/06/30 09:57:32;;;;;;;19.10;17.87;;;30.20;98.80;;;;;;5026602;28;20467;-69
2022/06/30 10:00:04;;;;;;;20.37;18.60;;;30.20;98.30;;;;;;5026427;28;20471;-69
2022/06/30 10:02:33;;;;;;;19.03;17.60;;;30.20;99.10;;;;;;5026556;28;20463;-69
2022/06/30 10:05:04;;;;;;;19.20;17.80;;;30.60;98.40;;;;;;5027124;28;20831;-67
2022/06/30 10:07:34;;;;;;;19.50;18.10;;;30.90;98.70;;;;;;5026762;28;20491;-69
2022/06/30 10:10:01;;;;;;;18.70;17.20;;;31.10;96.90;;;;;;5026804;28;20495;-68
2022/06/30 10:12:28;;;;;;;19.93;18.00;;;31.00;96.90;;;;;;5026532;28;20854;-69
2022/06/30 10:14:55;;;;;;;19.40;17.30;;;31.60;95.50;;;;;;5030363;28;20472;-68
2022/06/30 10:17:24;;;;;;;18.40;17.20;;;32.00;94.20;;;;;;5030854;28;20464;-68
2022/06/30 10:19:53;;;;;;;17.70;16.80;;;31.60;93.40;;;;;;5029887;28;20950;-68
2022/06/30 10:22:23;;;;;;;18.87;16.90;;;30.80;93.80;;;;;;5030600;28;20460;-68
2022/06/30 10:24:52;;;;;;;17.90;16.70;;;30.80;94.00;;;;;;5030404;28;20586;-69
2022/06/30 10:27:20;;;;;;;18.13;16.40;;;31.40;93.00;;;;;;5030371;28;20503;-69
2022/06/30 10:29:51;;;;;;;18.03;16.97;;;31.50;92.60;;;;;;5029932;28;20903;-69
2022/06/30 10:32:28;;;;;;;17.60;16.47;;;31.70;92.40;;;;;;5030631;28;21009;-69
2022/06/30 10:35:04;;;;;;;17.03;15.33;;;31.30;91.10;;;;;;5030814;28;20470;-68
2022/06/30 10:37:40;;;;;;;16.33;15.43;;;31.70;90.70;;;;;;5056245;28;20463;-68
2022/06/30 10:40:16;;;;;;;18.50;16.73;;;31.20;88.00;;;;;;5057068;28;21581;-69
2022/06/30 10:42:46;;;;;;;18.43;16.77;;;31.20;88.60;;;;;;5030188;28;20467;-68
2022/06/30 10:45:50;;;;;;;17.10;16.00;;;31.60;90.30;;;;;;5029970;28;20510;-68
2022/06/30 10:48:17;;;;;;;18.00;16.70;;;31.60;87.80;;;;;;5030431;28;20455;-69
2022/06/30 10:50:45;;;;;;;17.90;16.70;;;31.70;88.40;;;;;;5031103;28;20507;-68
2022/06/30 10:53:17;;;;;;;17.47;16.20;;;32.00;85.90;;;;;;5029889;28;20553;-69
2022/06/30 10:55:45;;;;;;;19.47;17.20;;;32.10;84.50;;;;;;5030009;28;20475;-68
2022/06/30 10:58:13;;;;;;;17.70;16.30;;;32.40;84.00;;;;;;5029194;28;20463;-69
2022/06/30 11:00:45;;;;;;;18.37;16.70;;;32.60;85.80;;;;;;5029593;28;20463;-68
2022/06/30 11:03:58;;;;;;;17.60;16.17;;;32.90;83.90;;;;;;5028079;28;20955;-70
2022/06/30 11:06:27;;;;;;;19.10;17.70;;;32.40;82.50;;;;;;5028225;28;20460;-69
2022/06/30 11:08:58;;;;;;;18.20;17.00;;;32.00;82.50;;;;;;5029623;28;20538;-69
2022/06/30 11:11:44;;;;;;;18.00;16.40;;;32.00;83.40;;;;;;5030375;28;20513;-69
2022/06/30 11:14:27;;;;;;;17.80;16.20;;;32.60;81.50;;;;;;5029704;28;20836;-70
2022/06/30 11:16:54;;;;;;;18.27;16.90;;;33.10;82.30;;;;;;5030016;28;20506;-69
2022/06/30 11:19:24;;;;;;;19.60;16.97;;;33.80;82.10;;;;;;5030235;28;20541;-70
2022/06/30 11:21:52;;;;;;;25.13;17.90;;;34.10;77.60;;;;;;5029290;28;20470;-69
2022/06/30 11:24:23;;;;;;;19.00;17.50;;;34.20;78.60;;;;;;5028410;28;20507;-68
2022/06/30 11:29:35;;;;;;;16.80;15.70;;;33.60;77.90;;;;;;5030088;28;21039;-69
2022/06/30 11:32:03;;;;;;;18.13;16.83;;;33.50;76.90;;;;;;5028586;28;20518;-69
2022/06/30 11:34:35;;;;;;;18.87;16.47;;;33.80;75.50;;;;;;5028898;28;20471;-68
2022/06/30 11:37:02;;;;;;;18.13;16.67;;;34.20;76.90;;;;;;5029521;28;20455;-68
2022/06/30 11:39:31;;;;;;;17.53;16.33;;;34.10;72.80;;;;;;5029360;28;20986;-68
2022/06/30 11:41:59;;;;;;;18.07;16.57;;;33.70;72.20;;;;;;5029628;28;20857;-69
2022/06/30 11:44:31;;;;;;;18.90;17.50;;;34.10;72.20;;;;;;5029085;28;20488;-69
2022/06/30 11:46:59;;;;;;;18.37;17.17;;;34.50;71.60;;;;;;5030396;28;20548;-69
2022/06/30 11:49:29;;;;;;;17.97;16.70;;;34.60;67.30;;;;;;5029401;28;20468;-69
2022/06/30 11:51:57;;;;;;;18.07;16.60;;;34.60;67.20;;;;;;5028419;28;20474;-69
2022/06/30 11:54:28;;;;;;;18.30;17.03;;;34.40;67.90;;;;;;5029207;28;21794;-69
2022/06/30 11:57:00;;;;;;;18.80;17.23;;;34.00;66.00;;;;;;5028746;28;20456;-70
2022/06/30 11:59:27;;;;;;;17.60;16.13;;;34.40;66.40;;;;;;5028196;28;21095;-69
2022/06/30 12:02:00;;;;;;;17.00;15.83;;;34.00;68.50;;;;;;5027928;28;20498;-69
2022/06/30 12:04:27;;;;;;;16.83;15.43;;;34.00;69.00;;;;;;5026738;28;20491;-69
2022/06/30 12:06:54;;;;;;;16.90;16.00;;;34.10;68.80;;;;;;5028950;28;20467;-69
2022/06/30 12:09:21;;;;;;;16.60;15.30;;;35.50;63.90;;;;;;5028733;28;20811;-69
2022/06/30 12:11:48;;;;;;;16.93;15.93;;;36.30;58.60;;;;;;5028716;28;20841;-69
2022/06/30 12:14:17;;;;;;;15.57;14.83;;;36.50;56.70;;;;;;5027401;28;20494;-70
2022/06/30 12:16:45;;;;;;;16.37;15.47;;;36.70;54.40;;;;;;5028496;28;20464;-70
2022/06/30 12:19:14;;;;;;;16.40;15.33;;;37.00;52.40;;;;;;5028169;28;20471;-70
2022/06/30 12:21:42;;;;;;;16.50;15.23;;;37.90;53.60;;;;;;5028010;28;20475;-69
2022/06/30 12:24:09;;;;;;;16.13;15.17;;;37.30;55.00;;;;;;5027641;28;20555;-69
2022/06/30 12:26:36;;;;;;;16.57;15.67;;;37.10;55.50;;;;;;5027790;28;20483;-70
2022/06/30 12:29:12;;;;;;;16.50;15.50;;;36.60;55.50;;;;;;5027520;28;20490;-70
2022/06/30 12:31:40;;;;;;;24.00;16.07;;;36.20;56.00;;;;;;5028072;28;20490;-69
2022/06/30 12:34:07;;;;;;;18.33;16.63;;;35.70;56.50;;;;;;5027537;28;21557;-69
2022/06/30 12:36:36;;;;;;;19.03;17.30;;;35.60;56.60;;;;;;5027122;28;20474;-70
2022/06/30 12:39:14;;;;;;;16.20;15.37;;;36.00;55.60;;;;;;5028598;28;20480;-69
2022/06/30 12:41:41;;;;;;;16.07;14.93;;;36.00;56.00;;;;;;5027607;28;20577;-70
2022/06/30 12:44:08;;;;;;;16.30;15.50;;;36.00;55.40;;;;;;5024974;28;20487;-69
2022/06/30 12:46:46;;;;;;;16.40;15.50;;;36.80;53.40;;;;;;5017685;28;20470;-70
2022/06/30 12:49:23;;;;;;;17.17;15.40;;;37.70;51.60;;;;;;5027018;28;20752;-69
2022/06/30 12:51:50;;;;;;;16.00;15.10;;;37.80;51.60;;;;;;5028900;28;20468;-70
2022/06/30 12:54:24;;;;;;;15.70;14.83;;;38.80;50.40;;;;;;5029218;28;20487;-70